sensor_id;sensor_type;location;lat;lon;timestamp;P1;durP1;ratioP1;P2;durP2;ratioP2
35632;SDS011;21754;48.216;-1.628;2023-05-02T00:00:15;3.78;;;2.05;;
35632;SDS011;21754;48.216;-1.628;2023-05-02T00:02:41;4.07;;;3.47;;
35632;SDS011;21754;48.216;-1.628;2023-05-02T00:05:07;6.63;;;2.30;;
35632;SDS011;21754;48.216;-1.628;2023-05-02T00:07:33;2.20;;;2.05;;
35632;SDS011;21754;48.216;-1.628;2023-05-02T00:09:59;7.50;;;4.00;;
35632;SDS011;21754;48.216;-1.628;2023-05-02T00:12:26;4.37;;;2.30;;
35632;SDS011;21754;48.216;-1.628;2023-05-02T00:14:52;4.75;;;2.80;;
35632;SDS011;21754;48.216;-1.628;2023-05-02T00:17:19;6.18;;;2.83;;
35632;SDS011;21754;48.216;-1.628;2023-05-02T00:19:45;4.32;;;2.58;;
35632;SDS011;21754;48.216;-1.628;2023-05-02T00:22:11;5.25;;;2.45;;
35632;SDS011;21754;48.216;-1.628;2023-05-02T00:24:37;4.95;;;3.38;;
35632;SDS011;21754;48.216;-1.628;2023-05-02T00:27:03;7.43;;;2.35;;
35632;SDS011;21754;48.216;-1.628;2023-05-02T00:29:30;4.07;;;2.50;;
35632;SDS011;21754;48.216;-1.628;2023-05-02T00:31:56;9.25;;;2.70;;
35632;SDS011;21754;48.216;-1.628;2023-05-02T00:34:22;13.05;;;2.80;;
35632;SDS011;21754;48.216;-1.628;2023-05-02T00:36:48;10.20;;;3.55;;
35632;SDS011;21754;48.216;-1.628;2023-05-02T00:39:15;7.65;;;2.65;;
35632;SDS011;21754;48.216;-1.628;2023-05-02T00:41:41;6.15;;;3.72;;
35632;SDS011;21754;48.216;-1.628;2023-05-02T00:44:07;5.75;;;3.08;;
35632;SDS011;21754;48.216;-1.628;2023-05-02T00:46:33;13.25;;;3.10;;
35632;SDS011;21754;48.216;-1.628;2023-05-02T00:49:00;6.68;;;3.05;;
35632;SDS011;21754;48.216;-1.628;2023-05-02T00:51:26;2.85;;;2.58;;
35632;SDS011;21754;48.216;-1.628;2023-05-02T00:53:52;10.05;;;3.47;;
35632;SDS011;21754;48.216;-1.628;2023-05-02T00:56:19;4.00;;;2.47;;
35632;SDS011;21754;48.216;-1.628;2023-05-02T00:58:45;5.63;;;3.10;;
35632;SDS011;21754;48.216;-1.628;2023-05-02T01:11:38;4.60;;;2.65;;
35632;SDS011;21754;48.216;-1.628;2023-05-02T01:14:07;8.80;;;2.70;;
35632;SDS011;21754;48.216;-1.628;2023-05-02T01:16:35;12.93;;;3.72;;
35632;SDS011;21754;48.216;-1.628;2023-05-02T01:19:04;26.20;;;3.47;;
35632;SDS011;21754;48.216;-1.628;2023-05-02T01:21:30;13.40;;;4.10;;
35632;SDS011;21754;48.216;-1.628;2023-05-02T01:26:49;10.82;;;3.60;;
35632;SDS011;21754;48.216;-1.628;2023-05-02T01:29:16;11.02;;;4.72;;
35632;SDS011;21754;48.216;-1.628;2023-05-02T01:31:44;9.00;;;4.28;;
35632;SDS011;21754;48.216;-1.628;2023-05-02T01:36:38;9.98;;;3.50;;
35632;SDS011;21754;48.216;-1.628;2023-05-02T01:39:06;22.75;;;3.60;;
35632;SDS011;21754;48.216;-1.628;2023-05-02T01:41:34;12.10;;;3.75;;
35632;SDS011;21754;48.216;-1.628;2023-05-02T01:44:01;9.80;;;3.67;;
35632;SDS011;21754;48.216;-1.628;2023-05-02T01:46:32;21.88;;;3.85;;
35632;SDS011;21754;48.216;-1.628;2023-05-02T01:49:00;21.98;;;3.38;;
35632;SDS011;21754;48.216;-1.628;2023-05-02T01:51:29;11.43;;;3.95;;
35632;SDS011;21754;48.216;-1.628;2023-05-02T01:53:56;22.08;;;3.05;;
35632;SDS011;21754;48.216;-1.628;2023-05-02T01:56:23;6.78;;;3.10;;
35632;SDS011;21754;48.216;-1.628;2023-05-02T01:58:50;6.13;;;4.22;;
35632;SDS011;21754;48.216;-1.628;2023-05-02T02:01:17;11.65;;;4.28;;
35632;SDS011;21754;48.216;-1.628;2023-05-02T02:03:44;6.22;;;3.97;;
35632;SDS011;21754;48.216;-1.628;2023-05-02T02:06:11;7.32;;;4.15;;
35632;SDS011;21754;48.216;-1.628;2023-05-02T02:08:38;8.52;;;3.55;;
35632;SDS011;21754;48.216;-1.628;2023-05-02T02:11:07;9.82;;;4.20;;
35632;SDS011;21754;48.216;-1.628;2023-05-02T02:13:34;9.27;;;4.30;;
35632;SDS011;21754;48.216;-1.628;2023-05-02T02:16:02;5.90;;;2.95;;
35632;SDS011;21754;48.216;-1.628;2023-05-02T02:18:29;8.77;;;4.20;;
35632;SDS011;21754;48.216;-1.628;2023-05-02T02:20:57;7.85;;;4.25;;
35632;SDS011;21754;48.216;-1.628;2023-05-02T02:23:25;7.57;;;3.92;;
35632;SDS011;21754;48.216;-1.628;2023-05-02T02:28:18;9.73;;;4.18;;
35632;SDS011;21754;48.216;-1.628;2023-05-02T02:30:44;5.00;;;3.30;;
35632;SDS011;21754;48.216;-1.628;2023-05-02T02:33:10;9.25;;;4.18;;
35632;SDS011;21754;48.216;-1.628;2023-05-02T02:35:37;7.88;;;4.78;;
35632;SDS011;21754;48.216;-1.628;2023-05-02T02:40:41;7.55;;;4.70;;
35632;SDS011;21754;48.216;-1.628;2023-05-02T02:43:32;5.38;;;4.03;;
35632;SDS011;21754;48.216;-1.628;2023-05-02T02:51:13;9.07;;;4.85;;
35632;SDS011;21754;48.216;-1.628;2023-05-02T02:56:25;14.57;;;4.30;;
35632;SDS011;21754;48.216;-1.628;2023-05-02T03:02:07;6.20;;;3.85;;
35632;SDS011;21754;48.216;-1.628;2023-05-02T03:04:33;9.00;;;4.35;;
35632;SDS011;21754;48.216;-1.628;2023-05-02T03:07:00;6.38;;;3.80;;
35632;SDS011;21754;48.216;-1.628;2023-05-02T03:09:26;9.27;;;3.78;;
35632;SDS011;21754;48.216;-1.628;2023-05-02T03:14:20;6.32;;;3.95;;
35632;SDS011;21754;48.216;-1.628;2023-05-02T03:16:46;6.97;;;4.22;;
35632;SDS011;21754;48.216;-1.628;2023-05-02T03:19:12;11.55;;;4.07;;
35632;SDS011;21754;48.216;-1.628;2023-05-02T03:21:38;7.68;;;4.35;;
35632;SDS011;21754;48.216;-1.628;2023-05-02T03:24:05;7.78;;;3.78;;
35632;SDS011;21754;48.216;-1.628;2023-05-02T03:26:32;13.38;;;4.57;;
35632;SDS011;21754;48.216;-1.628;2023-05-02T03:28:58;9.05;;;4.10;;
35632;SDS011;21754;48.216;-1.628;2023-05-02T03:31:24;16.23;;;5.30;;
35632;SDS011;21754;48.216;-1.628;2023-05-02T03:33:50;15.73;;;5.90;;
35632;SDS011;21754;48.216;-1.628;2023-05-02T03:36:17;9.73;;;4.35;;
35632;SDS011;21754;48.216;-1.628;2023-05-02T03:38:43;12.15;;;5.35;;
35632;SDS011;21754;48.216;-1.628;2023-05-02T03:41:09;10.48;;;6.88;;
35632;SDS011;21754;48.216;-1.628;2023-05-02T03:43:35;15.52;;;5.85;;
35632;SDS011;21754;48.216;-1.628;2023-05-02T03:46:05;12.07;;;5.80;;
35632;SDS011;21754;48.216;-1.628;2023-05-02T03:48:32;10.75;;;4.72;;
35632;SDS011;21754;48.216;-1.628;2023-05-02T03:50:58;9.15;;;5.60;;
35632;SDS011;21754;48.216;-1.628;2023-05-02T03:53:24;13.13;;;4.68;;
35632;SDS011;21754;48.216;-1.628;2023-05-02T03:55:50;7.63;;;4.70;;
35632;SDS011;21754;48.216;-1.628;2023-05-02T03:58:17;9.57;;;4.93;;
35632;SDS011;21754;48.216;-1.628;2023-05-02T04:00:43;12.30;;;5.82;;
35632;SDS011;21754;48.216;-1.628;2023-05-02T04:03:09;7.63;;;5.65;;
35632;SDS011;21754;48.216;-1.628;2023-05-02T04:05:35;7.30;;;4.85;;
35632;SDS011;21754;48.216;-1.628;2023-05-02T04:08:01;11.18;;;5.15;;
35632;SDS011;21754;48.216;-1.628;2023-05-02T04:10:27;11.48;;;4.85;;
35632;SDS011;21754;48.216;-1.628;2023-05-02T04:12:53;12.38;;;6.20;;
35632;SDS011;21754;48.216;-1.628;2023-05-02T04:15:19;12.57;;;6.43;;
35632;SDS011;21754;48.216;-1.628;2023-05-02T04:17:45;11.15;;;6.22;;
35632;SDS011;21754;48.216;-1.628;2023-05-02T04:20:11;11.80;;;6.07;;
35632;SDS011;21754;48.216;-1.628;2023-05-02T04:22:37;6.03;;;5.22;;
35632;SDS011;21754;48.216;-1.628;2023-05-02T04:25:04;6.10;;;4.85;;
35632;SDS011;21754;48.216;-1.628;2023-05-02T04:27:31;11.75;;;5.85;;
35632;SDS011;21754;48.216;-1.628;2023-05-02T04:29:57;14.07;;;4.82;;
35632;SDS011;21754;48.216;-1.628;2023-05-02T04:32:23;11.80;;;4.93;;
35632;SDS011;21754;48.216;-1.628;2023-05-02T04:34:49;12.25;;;5.25;;
35632;SDS011;21754;48.216;-1.628;2023-05-02T04:37:15;5.85;;;5.25;;
35632;SDS011;21754;48.216;-1.628;2023-05-02T04:39:41;11.95;;;6.25;;
35632;SDS011;21754;48.216;-1.628;2023-05-02T04:42:07;10.15;;;5.53;;
35632;SDS011;21754;48.216;-1.628;2023-05-02T04:44:33;8.13;;;5.65;;
35632;SDS011;21754;48.216;-1.628;2023-05-02T04:46:59;9.52;;;5.82;;
35632;SDS011;21754;48.216;-1.628;2023-05-02T04:49:26;11.60;;;6.47;;
35632;SDS011;21754;48.216;-1.628;2023-05-02T04:51:52;15.00;;;4.95;;
35632;SDS011;21754;48.216;-1.628;2023-05-02T04:54:18;8.65;;;5.50;;
35632;SDS011;21754;48.216;-1.628;2023-05-02T04:56:44;10.15;;;5.22;;
35632;SDS011;21754;48.216;-1.628;2023-05-02T04:59:11;9.82;;;4.88;;
35632;SDS011;21754;48.216;-1.628;2023-05-02T05:01:37;10.52;;;4.90;;
35632;SDS011;21754;48.216;-1.628;2023-05-02T05:04:03;12.93;;;5.70;;
35632;SDS011;21754;48.216;-1.628;2023-05-02T05:06:29;11.70;;;6.00;;
35632;SDS011;21754;48.216;-1.628;2023-05-02T05:08:56;13.52;;;7.15;;
35632;SDS011;21754;48.216;-1.628;2023-05-02T05:11:22;16.70;;;5.68;;
35632;SDS011;21754;48.216;-1.628;2023-05-02T05:13:48;13.23;;;6.97;;
35632;SDS011;21754;48.216;-1.628;2023-05-02T05:16:14;17.20;;;6.18;;
35632;SDS011;21754;48.216;-1.628;2023-05-02T05:18:40;15.63;;;6.60;;
35632;SDS011;21754;48.216;-1.628;2023-05-02T05:21:07;8.98;;;5.70;;
35632;SDS011;21754;48.216;-1.628;2023-05-02T05:23:33;14.88;;;6.13;;
35632;SDS011;21754;48.216;-1.628;2023-05-02T05:26:12;11.65;;;5.53;;
35632;SDS011;21754;48.216;-1.628;2023-05-02T05:28:42;6.28;;;4.90;;
35632;SDS011;21754;48.216;-1.628;2023-05-02T05:31:09;8.57;;;5.78;;
35632;SDS011;21754;48.216;-1.628;2023-05-02T05:33:35;6.73;;;4.83;;
35632;SDS011;21754;48.216;-1.628;2023-05-02T05:36:11;13.95;;;7.13;;
35632;SDS011;21754;48.216;-1.628;2023-05-02T05:38:39;11.18;;;6.07;;
35632;SDS011;21754;48.216;-1.628;2023-05-02T05:41:05;15.15;;;6.13;;
35632;SDS011;21754;48.216;-1.628;2023-05-02T05:43:35;9.45;;;5.80;;
35632;SDS011;21754;48.216;-1.628;2023-05-02T05:46:01;14.63;;;6.07;;
35632;SDS011;21754;48.216;-1.628;2023-05-02T05:48:27;12.43;;;5.35;;
35632;SDS011;21754;48.216;-1.628;2023-05-02T05:50:53;22.17;;;5.22;;
35632;SDS011;21754;48.216;-1.628;2023-05-02T05:53:19;8.00;;;5.05;;
35632;SDS011;21754;48.216;-1.628;2023-05-02T05:55:46;12.15;;;4.65;;
35632;SDS011;21754;48.216;-1.628;2023-05-02T05:58:12;10.50;;;5.95;;
35632;SDS011;21754;48.216;-1.628;2023-05-02T06:00:38;14.02;;;5.25;;
35632;SDS011;21754;48.216;-1.628;2023-05-02T06:03:05;6.10;;;5.47;;
35632;SDS011;21754;48.216;-1.628;2023-05-02T06:05:31;9.68;;;5.47;;
35632;SDS011;21754;48.216;-1.628;2023-05-02T06:07:58;12.10;;;6.38;;
35632;SDS011;21754;48.216;-1.628;2023-05-02T06:10:24;8.25;;;5.25;;
35632;SDS011;21754;48.216;-1.628;2023-05-02T06:12:50;8.38;;;5.97;;
35632;SDS011;21754;48.216;-1.628;2023-05-02T06:15:16;14.05;;;6.13;;
35632;SDS011;21754;48.216;-1.628;2023-05-02T06:17:42;9.98;;;7.03;;
35632;SDS011;21754;48.216;-1.628;2023-05-02T06:20:09;7.60;;;6.22;;
35632;SDS011;21754;48.216;-1.628;2023-05-02T06:22:35;14.35;;;6.43;;
35632;SDS011;21754;48.216;-1.628;2023-05-02T06:25:01;12.23;;;4.70;;
35632;SDS011;21754;48.216;-1.628;2023-05-02T06:27:29;9.65;;;6.10;;
35632;SDS011;21754;48.216;-1.628;2023-05-02T06:29:55;12.73;;;5.45;;
35632;SDS011;21754;48.216;-1.628;2023-05-02T06:32:21;10.75;;;6.15;;
35632;SDS011;21754;48.216;-1.628;2023-05-02T06:34:47;12.57;;;5.45;;
35632;SDS011;21754;48.216;-1.628;2023-05-02T06:37:13;14.13;;;5.45;;
35632;SDS011;21754;48.216;-1.628;2023-05-02T06:39:39;9.60;;;4.75;;
35632;SDS011;21754;48.216;-1.628;2023-05-02T06:42:05;5.60;;;4.68;;
35632;SDS011;21754;48.216;-1.628;2023-05-02T06:44:31;18.08;;;6.18;;
35632;SDS011;21754;48.216;-1.628;2023-05-02T06:46:57;13.50;;;5.32;;
35632;SDS011;21754;48.216;-1.628;2023-05-02T06:49:24;9.50;;;5.55;;
35632;SDS011;21754;48.216;-1.628;2023-05-02T06:51:51;9.40;;;5.47;;
35632;SDS011;21754;48.216;-1.628;2023-05-02T06:54:17;8.68;;;5.05;;
35632;SDS011;21754;48.216;-1.628;2023-05-02T06:56:43;7.20;;;5.93;;
35632;SDS011;21754;48.216;-1.628;2023-05-02T06:59:09;12.70;;;6.20;;
35632;SDS011;21754;48.216;-1.628;2023-05-02T07:01:36;11.57;;;4.32;;
35632;SDS011;21754;48.216;-1.628;2023-05-02T07:04:02;7.18;;;5.03;;
35632;SDS011;21754;48.216;-1.628;2023-05-02T07:06:29;9.80;;;5.93;;
35632;SDS011;21754;48.216;-1.628;2023-05-02T07:08:55;7.85;;;5.78;;
35632;SDS011;21754;48.216;-1.628;2023-05-02T07:11:22;10.07;;;6.55;;
35632;SDS011;21754;48.216;-1.628;2023-05-02T07:13:48;7.45;;;5.20;;
35632;SDS011;21754;48.216;-1.628;2023-05-02T07:16:14;11.65;;;5.43;;
35632;SDS011;21754;48.216;-1.628;2023-05-02T07:18:40;7.85;;;5.18;;
35632;SDS011;21754;48.216;-1.628;2023-05-02T07:21:06;16.35;;;6.30;;
35632;SDS011;21754;48.216;-1.628;2023-05-02T07:23:32;10.10;;;5.70;;
35632;SDS011;21754;48.216;-1.628;2023-05-02T07:25:59;15.73;;;5.68;;
35632;SDS011;21754;48.216;-1.628;2023-05-02T07:28:25;12.13;;;5.30;;
35632;SDS011;21754;48.216;-1.628;2023-05-02T07:30:51;8.70;;;6.15;;
35632;SDS011;21754;48.216;-1.628;2023-05-02T07:33:17;18.20;;;5.88;;
35632;SDS011;21754;48.216;-1.628;2023-05-02T07:35:43;11.30;;;5.63;;
35632;SDS011;21754;48.216;-1.628;2023-05-02T07:38:09;11.30;;;6.30;;
35632;SDS011;21754;48.216;-1.628;2023-05-02T07:40:35;10.27;;;5.55;;
35632;SDS011;21754;48.216;-1.628;2023-05-02T07:43:01;15.40;;;5.15;;
35632;SDS011;21754;48.216;-1.628;2023-05-02T07:45:27;8.90;;;4.93;;
35632;SDS011;21754;48.216;-1.628;2023-05-02T07:47:53;11.07;;;6.18;;
35632;SDS011;21754;48.216;-1.628;2023-05-02T07:50:19;8.57;;;4.07;;
35632;SDS011;21754;48.216;-1.628;2023-05-02T07:52:45;6.35;;;4.90;;
35632;SDS011;21754;48.216;-1.628;2023-05-02T07:55:11;7.55;;;4.07;;
35632;SDS011;21754;48.216;-1.628;2023-05-02T07:57:37;11.23;;;5.18;;
35632;SDS011;21754;48.216;-1.628;2023-05-02T08:00:03;9.68;;;5.05;;
35632;SDS011;21754;48.216;-1.628;2023-05-02T08:02:34;5.28;;;4.75;;
35632;SDS011;21754;48.216;-1.628;2023-05-02T08:05:03;7.50;;;5.03;;
35632;SDS011;21754;48.216;-1.628;2023-05-02T08:07:30;6.95;;;4.40;;
35632;SDS011;21754;48.216;-1.628;2023-05-02T08:09:57;6.55;;;4.55;;
35632;SDS011;21754;48.216;-1.628;2023-05-02T08:12:23;7.20;;;4.45;;
35632;SDS011;21754;48.216;-1.628;2023-05-02T08:14:49;8.48;;;5.20;;
35632;SDS011;21754;48.216;-1.628;2023-05-02T08:17:15;6.05;;;4.28;;
35632;SDS011;21754;48.216;-1.628;2023-05-02T08:19:41;4.20;;;3.80;;
35632;SDS011;21754;48.216;-1.628;2023-05-02T08:22:07;9.98;;;4.45;;
35632;SDS011;21754;48.216;-1.628;2023-05-02T08:24:33;6.00;;;4.70;;
35632;SDS011;21754;48.216;-1.628;2023-05-02T08:26:59;6.00;;;4.47;;
35632;SDS011;21754;48.216;-1.628;2023-05-02T08:29:28;8.20;;;4.07;;
35632;SDS011;21754;48.216;-1.628;2023-05-02T08:31:54;11.75;;;6.03;;
35632;SDS011;21754;48.216;-1.628;2023-05-02T08:34:20;12.15;;;4.25;;
35632;SDS011;21754;48.216;-1.628;2023-05-02T08:36:46;9.10;;;4.43;;
35632;SDS011;21754;48.216;-1.628;2023-05-02T08:39:12;6.88;;;5.40;;
35632;SDS011;21754;48.216;-1.628;2023-05-02T08:41:38;5.00;;;4.57;;
35632;SDS011;21754;48.216;-1.628;2023-05-02T08:44:05;6.13;;;4.53;;
35632;SDS011;21754;48.216;-1.628;2023-05-02T08:46:34;7.00;;;4.95;;
35632;SDS011;21754;48.216;-1.628;2023-05-02T08:49:00;9.38;;;4.40;;
35632;SDS011;21754;48.216;-1.628;2023-05-02T08:51:27;10.85;;;4.88;;
35632;SDS011;21754;48.216;-1.628;2023-05-02T08:53:54;8.43;;;4.43;;
35632;SDS011;21754;48.216;-1.628;2023-05-02T08:56:20;3.97;;;3.45;;
35632;SDS011;21754;48.216;-1.628;2023-05-02T08:58:46;10.68;;;4.53;;
35632;SDS011;21754;48.216;-1.628;2023-05-02T09:01:13;9.63;;;4.40;;
35632;SDS011;21754;48.216;-1.628;2023-05-02T09:03:42;6.40;;;4.00;;
35632;SDS011;21754;48.216;-1.628;2023-05-02T09:06:15;6.75;;;4.22;;
35632;SDS011;21754;48.216;-1.628;2023-05-02T09:08:42;7.25;;;4.72;;
35632;SDS011;21754;48.216;-1.628;2023-05-02T09:11:09;10.98;;;5.07;;
35632;SDS011;21754;48.216;-1.628;2023-05-02T09:18:31;8.73;;;4.53;;
35632;SDS011;21754;48.216;-1.628;2023-05-02T09:20:58;9.75;;;3.95;;
35632;SDS011;21754;48.216;-1.628;2023-05-02T09:23:39;13.37;;;4.60;;
35632;SDS011;21754;48.216;-1.628;2023-05-02T09:26:10;6.85;;;3.55;;
35632;SDS011;21754;48.216;-1.628;2023-05-02T09:28:37;3.97;;;2.67;;
35632;SDS011;21754;48.216;-1.628;2023-05-02T09:31:05;2.55;;;2.10;;
35632;SDS011;21754;48.216;-1.628;2023-05-02T09:33:32;2.35;;;1.52;;
35632;SDS011;21754;48.216;-1.628;2023-05-02T09:35:58;2.15;;;1.52;;
35632;SDS011;21754;48.216;-1.628;2023-05-02T09:38:24;2.17;;;1.50;;
35632;SDS011;21754;48.216;-1.628;2023-05-02T09:40:53;2.55;;;1.45;;
35632;SDS011;21754;48.216;-1.628;2023-05-02T09:43:22;2.60;;;1.42;;
35632;SDS011;21754;48.216;-1.628;2023-05-02T09:45:58;1.33;;;1.33;;
35632;SDS011;21754;48.216;-1.628;2023-05-02T09:48:25;2.28;;;1.70;;
35632;SDS011;21754;48.216;-1.628;2023-05-02T09:50:52;1.20;;;1.10;;
35632;SDS011;21754;48.216;-1.628;2023-05-02T09:53:18;6.00;;;1.45;;
35632;SDS011;21754;48.216;-1.628;2023-05-02T09:55:44;1.40;;;1.30;;
35632;SDS011;21754;48.216;-1.628;2023-05-02T09:58:20;1.60;;;1.50;;
35632;SDS011;21754;48.216;-1.628;2023-05-02T10:00:47;1.30;;;1.20;;
35632;SDS011;21754;48.216;-1.628;2023-05-02T10:03:15;1.25;;;1.20;;
35632;SDS011;21754;48.216;-1.628;2023-05-02T10:05:42;1.00;;;1.00;;
35632;SDS011;21754;48.216;-1.628;2023-05-02T10:08:08;1.77;;;1.25;;
35632;SDS011;21754;48.216;-1.628;2023-05-02T10:10:35;1.13;;;1.13;;
35632;SDS011;21754;48.216;-1.628;2023-05-02T10:13:05;1.00;;;0.93;;
35632;SDS011;21754;48.216;-1.628;2023-05-02T10:15:32;3.08;;;1.42;;
35632;SDS011;21754;48.216;-1.628;2023-05-02T10:17:59;3.15;;;1.25;;
35632;SDS011;21754;48.216;-1.628;2023-05-02T10:20:34;1.20;;;1.10;;
35632;SDS011;21754;48.216;-1.628;2023-05-02T10:23:02;3.55;;;1.48;;
35632;SDS011;21754;48.216;-1.628;2023-05-02T10:25:30;7.22;;;1.15;;
35632;SDS011;21754;48.216;-1.628;2023-05-02T10:27:57;1.63;;;1.42;;
35632;SDS011;21754;48.216;-1.628;2023-05-02T10:30:24;2.75;;;1.15;;
35632;SDS011;21754;48.216;-1.628;2023-05-02T10:32:51;2.60;;;1.30;;
35632;SDS011;21754;48.216;-1.628;2023-05-02T10:35:18;2.08;;;1.70;;
35632;SDS011;21754;48.216;-1.628;2023-05-02T10:37:45;2.42;;;1.63;;
35632;SDS011;21754;48.216;-1.628;2023-05-02T10:40:12;3.90;;;1.65;;
35632;SDS011;21754;48.216;-1.628;2023-05-02T10:42:39;2.33;;;1.90;;
35632;SDS011;21754;48.216;-1.628;2023-05-02T10:47:32;2.00;;;1.30;;
35632;SDS011;21754;48.216;-1.628;2023-05-02T10:49:59;1.52;;;1.38;;
35632;SDS011;21754;48.216;-1.628;2023-05-02T10:52:27;2.20;;;1.20;;
35632;SDS011;21754;48.216;-1.628;2023-05-02T10:55:12;1.88;;;1.65;;
35632;SDS011;21754;48.216;-1.628;2023-05-02T11:00:24;5.47;;;3.72;;
35632;SDS011;21754;48.216;-1.628;2023-05-02T11:02:50;6.47;;;2.00;;
35632;SDS011;21754;48.216;-1.628;2023-05-02T11:05:16;2.28;;;1.67;;
35632;SDS011;21754;48.216;-1.628;2023-05-02T11:07:42;3.30;;;2.35;;
35632;SDS011;21754;48.216;-1.628;2023-05-02T11:12:44;1.85;;;1.75;;
35632;SDS011;21754;48.216;-1.628;2023-05-02T11:15:11;2.05;;;1.33;;
35632;SDS011;21754;48.216;-1.628;2023-05-02T11:20:22;2.28;;;1.73;;
35632;SDS011;21754;48.216;-1.628;2023-05-02T11:22:48;2.90;;;1.90;;
35632;SDS011;21754;48.216;-1.628;2023-05-02T11:27:59;2.38;;;1.38;;
35632;SDS011;21754;48.216;-1.628;2023-05-02T11:30:44;3.08;;;1.92;;
35632;SDS011;21754;48.216;-1.628;2023-05-02T11:33:13;3.42;;;1.42;;
35632;SDS011;21754;48.216;-1.628;2023-05-02T11:35:41;1.83;;;1.58;;
35632;SDS011;21754;48.216;-1.628;2023-05-02T11:38:09;4.60;;;1.58;;
35632;SDS011;21754;48.216;-1.628;2023-05-02T11:40:35;1.00;;;1.00;;
35632;SDS011;21754;48.216;-1.628;2023-05-02T11:43:10;2.30;;;1.30;;
35632;SDS011;21754;48.216;-1.628;2023-05-02T11:45:37;3.63;;;1.90;;
35632;SDS011;21754;48.216;-1.628;2023-05-02T11:48:03;4.03;;;1.30;;
35632;SDS011;21754;48.216;-1.628;2023-05-02T11:50:31;1.70;;;1.23;;
35632;SDS011;21754;48.216;-1.628;2023-05-02T11:52:57;1.52;;;1.42;;
35632;SDS011;21754;48.216;-1.628;2023-05-02T11:55:23;3.67;;;1.20;;
35632;SDS011;21754;48.216;-1.628;2023-05-02T11:57:49;2.17;;;1.55;;
35632;SDS011;21754;48.216;-1.628;2023-05-02T12:00:15;1.05;;;1.02;;
35632;SDS011;21754;48.216;-1.628;2023-05-02T12:02:42;2.47;;;1.30;;
35632;SDS011;21754;48.216;-1.628;2023-05-02T12:05:09;1.83;;;1.73;;
35632;SDS011;21754;48.216;-1.628;2023-05-02T12:07:39;1.85;;;1.58;;
35632;SDS011;21754;48.216;-1.628;2023-05-02T12:10:06;1.42;;;1.15;;
35632;SDS011;21754;48.216;-1.628;2023-05-02T12:12:33;2.07;;;1.60;;
35632;SDS011;21754;48.216;-1.628;2023-05-02T12:15:03;1.40;;;1.10;;
35632;SDS011;21754;48.216;-1.628;2023-05-02T12:17:29;3.97;;;1.50;;
35632;SDS011;21754;48.216;-1.628;2023-05-02T12:19:56;1.40;;;1.30;;
35632;SDS011;21754;48.216;-1.628;2023-05-02T12:22:22;1.85;;;1.75;;
35632;SDS011;21754;48.216;-1.628;2023-05-02T12:24:50;4.25;;;1.27;;
35632;SDS011;21754;48.216;-1.628;2023-05-02T12:29:44;1.85;;;1.50;;
35632;SDS011;21754;48.216;-1.628;2023-05-02T12:32:11;3.53;;;1.50;;
35632;SDS011;21754;48.216;-1.628;2023-05-02T12:34:37;5.57;;;0.95;;
35632;SDS011;21754;48.216;-1.628;2023-05-02T12:37:03;1.60;;;1.30;;
35632;SDS011;21754;48.216;-1.628;2023-05-02T12:39:42;2.88;;;1.55;;
35632;SDS011;21754;48.216;-1.628;2023-05-02T12:42:12;3.58;;;0.88;;
35632;SDS011;21754;48.216;-1.628;2023-05-02T12:44:39;4.50;;;1.00;;
35632;SDS011;21754;48.216;-1.628;2023-05-02T12:47:06;2.10;;;1.92;;
35632;SDS011;21754;48.216;-1.628;2023-05-02T12:49:32;2.97;;;1.33;;
35632;SDS011;21754;48.216;-1.628;2023-05-02T12:51:58;2.67;;;1.30;;
35632;SDS011;21754;48.216;-1.628;2023-05-02T12:54:24;1.38;;;1.13;;
35632;SDS011;21754;48.216;-1.628;2023-05-02T12:56:50;2.17;;;1.48;;
35632;SDS011;21754;48.216;-1.628;2023-05-02T12:59:26;1.23;;;1.13;;
35632;SDS011;21754;48.216;-1.628;2023-05-02T13:01:53;2.40;;;0.98;;
35632;SDS011;21754;48.216;-1.628;2023-05-02T13:04:19;4.93;;;1.50;;
35632;SDS011;21754;48.216;-1.628;2023-05-02T13:06:45;1.83;;;1.27;;
35632;SDS011;21754;48.216;-1.628;2023-05-02T13:09:11;1.40;;;1.10;;
35632;SDS011;21754;48.216;-1.628;2023-05-02T13:11:36;2.15;;;1.63;;
35632;SDS011;21754;48.216;-1.628;2023-05-02T13:14:03;1.63;;;1.33;;
35632;SDS011;21754;48.216;-1.628;2023-05-02T13:16:29;1.30;;;1.20;;
35632;SDS011;21754;48.216;-1.628;2023-05-02T13:21:23;1.15;;;1.10;;
35632;SDS011;21754;48.216;-1.628;2023-05-02T13:23:49;4.20;;;1.30;;
35632;SDS011;21754;48.216;-1.628;2023-05-02T13:26:16;3.72;;;1.85;;
35632;SDS011;21754;48.216;-1.628;2023-05-02T13:28:42;2.53;;;1.42;;
35632;SDS011;21754;48.216;-1.628;2023-05-02T13:31:08;1.70;;;1.60;;
35632;SDS011;21754;48.216;-1.628;2023-05-02T13:33:34;2.63;;;1.20;;
35632;SDS011;21754;48.216;-1.628;2023-05-02T13:36:00;2.25;;;1.48;;
35632;SDS011;21754;48.216;-1.628;2023-05-02T13:38:26;2.90;;;0.98;;
35632;SDS011;21754;48.216;-1.628;2023-05-02T13:40:53;1.20;;;1.10;;
35632;SDS011;21754;48.216;-1.628;2023-05-02T13:43:19;1.27;;;1.00;;
35632;SDS011;21754;48.216;-1.628;2023-05-02T13:45:45;1.08;;;1.00;;
35632;SDS011;21754;48.216;-1.628;2023-05-02T13:48:12;0.88;;;0.80;;
35632;SDS011;21754;48.216;-1.628;2023-05-02T13:50:39;2.83;;;0.85;;
35632;SDS011;21754;48.216;-1.628;2023-05-02T13:53:05;0.80;;;0.80;;
35632;SDS011;21754;48.216;-1.628;2023-05-02T13:55:31;4.25;;;1.40;;
35632;SDS011;21754;48.216;-1.628;2023-05-02T13:57:57;1.50;;;0.80;;
35632;SDS011;21754;48.216;-1.628;2023-05-02T14:00:24;1.25;;;1.10;;
35632;SDS011;21754;48.216;-1.628;2023-05-02T14:02:52;2.80;;;1.08;;
35632;SDS011;21754;48.216;-1.628;2023-05-02T14:05:18;1.45;;;1.02;;
35632;SDS011;21754;48.216;-1.628;2023-05-02T14:07:44;2.28;;;0.70;;
35632;SDS011;21754;48.216;-1.628;2023-05-02T14:10:11;0.98;;;0.80;;
35632;SDS011;21754;48.216;-1.628;2023-05-02T14:12:37;2.28;;;1.40;;
35632;SDS011;21754;48.216;-1.628;2023-05-02T14:15:03;1.65;;;0.80;;
35632;SDS011;21754;48.216;-1.628;2023-05-02T14:17:29;2.55;;;1.52;;
35632;SDS011;21754;48.216;-1.628;2023-05-02T14:19:56;0.73;;;0.73;;
35632;SDS011;21754;48.216;-1.628;2023-05-02T14:22:22;1.00;;;1.00;;
35632;SDS011;21754;48.216;-1.628;2023-05-02T14:24:48;1.20;;;1.05;;
35632;SDS011;21754;48.216;-1.628;2023-05-02T14:27:14;0.98;;;0.80;;
35632;SDS011;21754;48.216;-1.628;2023-05-02T14:29:46;0.65;;;0.65;;
35632;SDS011;21754;48.216;-1.628;2023-05-02T14:32:12;1.42;;;0.90;;
35632;SDS011;21754;48.216;-1.628;2023-05-02T14:34:39;1.55;;;0.80;;
35632;SDS011;21754;48.216;-1.628;2023-05-02T14:37:05;0.77;;;0.77;;
35632;SDS011;21754;48.216;-1.628;2023-05-02T14:39:35;0.93;;;0.82;;
35632;SDS011;21754;48.216;-1.628;2023-05-02T14:42:01;0.80;;;0.80;;
35632;SDS011;21754;48.216;-1.628;2023-05-02T14:44:28;0.85;;;0.85;;
35632;SDS011;21754;48.216;-1.628;2023-05-02T14:46:54;1.95;;;0.93;;
35632;SDS011;21754;48.216;-1.628;2023-05-02T14:49:20;2.55;;;0.65;;
35632;SDS011;21754;48.216;-1.628;2023-05-02T14:54:14;2.28;;;0.90;;
35632;SDS011;21754;48.216;-1.628;2023-05-02T14:56:41;2.30;;;1.20;;
35632;SDS011;21754;48.216;-1.628;2023-05-02T14:59:07;5.70;;;0.90;;
35632;SDS011;21754;48.216;-1.628;2023-05-02T15:01:33;1.30;;;0.80;;
35632;SDS011;21754;48.216;-1.628;2023-05-02T15:03:59;0.98;;;0.82;;
35632;SDS011;21754;48.216;-1.628;2023-05-02T15:06:27;3.97;;;1.45;;
35632;SDS011;21754;48.216;-1.628;2023-05-02T15:08:55;2.10;;;0.95;;
35632;SDS011;21754;48.216;-1.628;2023-05-02T15:11:21;0.90;;;0.90;;
35632;SDS011;21754;48.216;-1.628;2023-05-02T15:13:48;0.93;;;0.93;;
35632;SDS011;21754;48.216;-1.628;2023-05-02T15:16:14;2.40;;;1.02;;
35632;SDS011;21754;48.216;-1.628;2023-05-02T15:18:40;3.45;;;0.88;;
35632;SDS011;21754;48.216;-1.628;2023-05-02T15:21:06;1.67;;;0.70;;
35632;SDS011;21754;48.216;-1.628;2023-05-02T15:23:32;1.13;;;1.13;;
35632;SDS011;21754;48.216;-1.628;2023-05-02T15:25:58;1.85;;;1.08;;
35632;SDS011;21754;48.216;-1.628;2023-05-02T15:28:25;0.95;;;0.80;;